createdAt,value
2023-03-06T00:01:58.894Z,16.00
2023-03-06T00:04:33.262Z,15.00
2023-03-06T00:07:07.611Z,10.60
2023-03-06T00:09:42.089Z,10.50
2023-03-06T00:12:16.565Z,12.90
2023-03-06T00:14:51.173Z,12.00
2023-03-06T00:17:25.797Z,8.10
2023-03-06T00:20:00.356Z,10.10
2023-03-06T00:22:34.665Z,12.50
2023-03-06T00:25:13.818Z,15.40
2023-03-06T00:27:48.551Z,13.00
2023-03-06T00:30:26.233Z,13.70
2023-03-06T00:33:00.707Z,13.90
2023-03-06T00:35:35.349Z,12.20
2023-03-06T00:38:11.177Z,12.30
2023-03-06T00:40:45.581Z,13.30
2023-03-06T00:43:19.905Z,16.50
2023-03-06T00:45:54.183Z,16.20
2023-03-06T00:48:28.450Z,13.60
2023-03-06T00:51:03.158Z,10.30
2023-03-06T00:53:37.960Z,11.10
2023-03-06T00:56:13.492Z,11.40
2023-03-06T00:58:47.847Z,11.30
2023-03-06T01:01:23.271Z,11.80
2023-03-06T01:03:58.447Z,14.30
2023-03-06T01:06:33.428Z,16.40
2023-03-06T01:09:10.823Z,16.10
2023-03-06T01:11:45.209Z,17.50
2023-03-06T01:14:20.318Z,13.70
2023-03-06T01:16:54.698Z,12.70
2023-03-06T01:19:28.952Z,11.40
2023-03-06T01:22:03.421Z,14.80
2023-03-06T01:24:39.222Z,17.40
2023-03-06T01:27:13.579Z,13.40
2023-03-06T01:29:48.949Z,16.20
2023-03-06T01:32:23.353Z,19.60
2023-03-06T01:34:58.400Z,18.80
2023-03-06T01:37:32.697Z,19.80
2023-03-06T01:40:09.751Z,26.30
2023-03-06T01:42:46.784Z,25.20
2023-03-06T01:46:38.121Z,23.80
2023-03-06T01:49:26.525Z,19.60
2023-03-06T01:52:08.108Z,19.80
2023-03-06T01:54:46.700Z,16.50
2023-03-06T01:57:25.627Z,18.60
2023-03-06T02:00:09.701Z,20.20
2023-03-06T02:02:55.166Z,22.70
2023-03-06T02:05:30.040Z,20.60
2023-03-06T02:08:06.948Z,16.10
2023-03-06T02:10:42.052Z,17.30
2023-03-06T02:13:16.455Z,14.90
2023-03-06T02:15:50.949Z,18.10
2023-03-06T02:18:28.821Z,18.90
2023-03-06T02:21:07.319Z,19.80
2023-03-06T02:23:57.679Z,19.90
2023-03-06T02:26:34.741Z,15.30
2023-03-06T02:29:10.846Z,13.40
2023-03-06T02:31:45.181Z,13.70
2023-03-06T02:34:55.062Z,15.10
2023-03-06T02:37:31.133Z,19.10
2023-03-06T02:40:18.102Z,20.70
2023-03-06T02:42:56.573Z,13.70
2023-03-06T02:45:38.561Z,14.20
2023-03-06T02:48:14.204Z,13.30
2023-03-06T02:50:49.996Z,17.30
2023-03-06T02:53:25.211Z,17.30
2023-03-06T02:55:59.497Z,18.80
2023-03-06T02:58:33.825Z,17.40
2023-03-06T03:01:09.375Z,16.50
2023-03-06T03:03:43.919Z,12.60
2023-03-06T03:06:18.392Z,15.50
2023-03-06T03:08:52.981Z,13.80
2023-03-06T03:11:27.937Z,14.00
2023-03-06T03:14:04.530Z,14.60
2023-03-06T03:16:39.364Z,14.90
2023-03-06T03:19:13.932Z,14.80
2023-03-06T03:21:48.463Z,13.90
2023-03-06T03:24:23.028Z,12.80
2023-03-06T03:26:57.964Z,12.30
2023-03-06T03:29:32.681Z,11.80
2023-03-06T03:32:08.278Z,16.60
2023-03-06T03:34:43.704Z,16.80
2023-03-06T03:37:18.020Z,12.60
2023-03-06T03:39:52.848Z,16.60
2023-03-06T03:42:28.157Z,13.40
2023-03-06T03:45:02.553Z,17.10
2023-03-06T03:47:37.675Z,18.50
2023-03-06T03:50:16.395Z,14.90
2023-03-06T03:52:51.075Z,13.90
2023-03-06T03:55:25.790Z,13.70
2023-03-06T03:58:00.432Z,15.10
2023-03-06T04:00:35.834Z,17.70
2023-03-06T04:03:16.895Z,15.10
2023-03-06T04:05:54.464Z,14.40
2023-03-06T04:08:29.786Z,16.80
2023-03-06T04:11:05.595Z,15.40
2023-03-06T04:13:39.925Z,16.10
2023-03-06T04:16:14.350Z,21.40
2023-03-06T04:18:48.640Z,25.80
2023-03-06T04:21:24.108Z,19.70
2023-03-06T04:23:58.631Z,20.90
2023-03-06T04:26:33.362Z,19.20
2023-03-06T04:29:07.797Z,19.70
2023-03-06T04:31:42.163Z,18.40
2023-03-06T04:34:16.626Z,17.10
2023-03-06T04:36:51.335Z,20.00
2023-03-06T04:39:25.822Z,18.20
2023-03-06T04:42:00.217Z,14.20
2023-03-06T04:44:34.460Z,21.60
2023-03-06T04:47:10.392Z,19.70
2023-03-06T04:49:44.861Z,20.10
2023-03-06T04:52:19.321Z,18.50
2023-03-06T04:54:53.648Z,17.50
2023-03-06T04:57:28.283Z,21.20
2023-03-06T05:00:03.006Z,24.10
2023-03-06T05:02:38.146Z,24.50
2023-03-06T05:05:15.221Z,21.80
2023-03-06T05:07:49.973Z,20.80
2023-03-06T05:10:24.557Z,21.80
2023-03-06T05:12:59.246Z,19.10
2023-03-06T05:15:33.819Z,27.30
2023-03-06T05:18:08.702Z,22.70
2023-03-06T05:20:43.196Z,23.10
2023-03-06T05:23:17.804Z,22.90
2023-03-06T05:25:52.216Z,23.60
2023-03-06T05:28:28.718Z,21.70
2023-03-06T05:31:03.599Z,19.50
2023-03-06T05:33:39.042Z,18.60
2023-03-06T05:36:14.682Z,21.60
2023-03-06T05:38:49.204Z,13.70
2023-03-06T05:41:23.705Z,20.20
2023-03-06T05:43:58.949Z,19.30
2023-03-06T05:46:33.623Z,18.70
2023-03-06T05:49:08.044Z,19.50
2023-03-06T05:51:42.253Z,22.30
2023-03-06T05:54:16.661Z,17.40
2023-03-06T05:56:51.174Z,18.20
2023-03-06T05:59:28.159Z,17.20
2023-03-06T06:02:05.585Z,17.60
2023-03-06T06:04:40.109Z,16.60
2023-03-06T06:07:18.483Z,15.80
2023-03-06T06:09:55.944Z,18.50
2023-03-06T06:12:31.012Z,17.40
2023-03-06T06:15:06.631Z,20.40
2023-03-06T06:17:41.602Z,18.60
2023-03-06T06:20:17.452Z,13.10
2023-03-06T06:22:52.238Z,17.30
2023-03-06T06:25:26.593Z,17.60
2023-03-06T06:28:01.329Z,16.60
2023-03-06T06:30:36.451Z,18.00
2023-03-06T06:33:11.118Z,15.80
2023-03-06T06:35:45.372Z,16.30
2023-03-06T06:38:20.258Z,15.00
2023-03-06T06:41:27.197Z,13.60
2023-03-06T06:43:49.554Z,15.20
2023-03-06T06:47:10.791Z,12.90
2023-03-06T06:49:19.234Z,15.80
2023-03-06T06:51:53.581Z,14.60
2023-03-06T06:54:28.515Z,11.80
2023-03-06T06:57:03.089Z,12.90
2023-03-06T06:59:37.196Z,11.60
2023-03-06T07:02:14.110Z,13.60
2023-03-06T07:05:02.537Z,13.00
2023-03-06T07:07:40.311Z,12.50
2023-03-06T07:10:20.071Z,15.90
2023-03-06T07:12:56.645Z,13.00
2023-03-06T07:15:31.861Z,11.40
2023-03-06T07:18:06.534Z,10.10
2023-03-06T07:20:41.031Z,11.10
2023-03-06T07:23:17.495Z,8.90
2023-03-06T07:25:52.480Z,15.80
2023-03-06T07:28:27.314Z,9.40
2023-03-06T07:31:02.116Z,10.50
2023-03-06T07:33:36.643Z,10.60
2023-03-06T07:36:14.467Z,9.40
2023-03-06T07:38:49.600Z,8.80
2023-03-06T07:41:24.252Z,14.40
2023-03-06T07:43:59.763Z,13.10
2023-03-06T07:46:34.323Z,17.40
2023-03-06T07:49:08.635Z,13.70
2023-03-06T07:51:43.384Z,8.40
2023-03-06T07:54:17.687Z,13.00
2023-03-06T07:56:54.888Z,13.00
2023-03-06T07:59:30.476Z,10.60
2023-03-06T08:02:04.756Z,8.80
2023-03-06T08:04:39.554Z,11.60
2023-03-06T08:07:14.282Z,9.80
2023-03-06T08:09:48.474Z,10.60
2023-03-06T08:12:23.570Z,9.80
2023-03-06T08:14:58.324Z,10.30
2023-03-06T08:17:32.756Z,10.10
2023-03-06T08:20:10.501Z,13.80
2023-03-06T08:22:45.087Z,11.00
2023-03-06T08:25:19.296Z,15.20
2023-03-06T08:27:53.553Z,12.40
2023-03-06T08:30:28.109Z,13.80
2023-03-06T08:33:02.626Z,14.70
2023-03-06T08:35:38.506Z,14.00
2023-03-06T08:38:13.062Z,12.90
2023-03-06T08:40:47.696Z,17.50
2023-03-06T08:43:22.227Z,14.80
2023-03-06T08:45:59.862Z,17.10
2023-03-06T08:49:29.483Z,16.60
2023-03-06T08:52:04.787Z,15.50
2023-03-06T08:54:40.978Z,16.00
2023-03-06T08:57:15.172Z,15.60
2023-03-06T08:59:49.343Z,17.00
2023-03-06T09:02:24.082Z,16.50
2023-03-06T09:04:59.540Z,16.60
2023-03-06T09:07:34.604Z,14.60
2023-03-06T09:10:14.216Z,18.60
2023-03-06T09:12:51.974Z,15.60
2023-03-06T09:15:28.420Z,14.10
2023-03-06T09:18:02.939Z,17.20
2023-03-06T09:20:37.529Z,16.10
2023-03-06T09:23:12.136Z,15.80
2023-03-06T09:25:46.575Z,16.70
2023-03-06T09:28:20.923Z,17.60
2023-03-06T09:30:56.218Z,16.40
2023-03-06T09:33:33.403Z,16.00
2023-03-06T09:36:11.228Z,15.60
2023-03-06T09:38:48.019Z,17.00
2023-03-06T09:41:32.896Z,13.60
2023-03-06T09:44:14.740Z,14.30
2023-03-06T09:47:31.943Z,15.40
2023-03-06T09:50:29.079Z,15.70
2023-03-06T09:53:21.710Z,13.80
2023-03-06T09:56:07.174Z,13.20
2023-03-06T09:58:50.402Z,12.20
2023-03-06T10:01:29.748Z,12.90
2023-03-06T10:04:24.447Z,12.70
2023-03-06T10:07:54.101Z,12.70
2023-03-06T10:10:41.991Z,11.40
2023-03-06T10:13:26.590Z,12.90
2023-03-06T10:16:21.312Z,13.40
2023-03-06T10:18:58.367Z,12.60
2023-03-06T10:21:46.765Z,11.40
2023-03-06T10:24:49.476Z,14.80
2023-03-06T10:27:43.475Z,14.50
2023-03-06T10:30:39.937Z,13.40
2023-03-06T10:33:30.192Z,14.60
2023-03-06T10:36:05.265Z,12.60
2023-03-06T10:38:40.778Z,11.40
2023-03-06T10:41:29.540Z,14.40
2023-03-06T10:44:26.731Z,17.80
2023-03-06T10:47:20.748Z,13.10
2023-03-06T10:50:07.302Z,13.90
2023-03-06T10:52:42.545Z,15.40
2023-03-06T10:55:33.170Z,11.30
2023-03-06T10:58:24.362Z,13.10
2023-03-06T11:01:25.059Z,11.50
2023-03-06T11:04:26.139Z,11.80
2023-03-06T11:07:20.677Z,9.80
2023-03-06T11:10:18.428Z,12.60
2023-03-06T11:13:06.309Z,10.30
2023-03-06T11:15:41.413Z,13.80
2023-03-06T11:18:36.117Z,12.80
2023-03-06T11:21:32.305Z,11.50
2023-03-06T11:24:19.673Z,12.40
2023-03-06T11:27:00.892Z,11.30
2023-03-06T11:29:43.771Z,12.30
2023-03-06T11:32:24.019Z,9.90
2023-03-06T11:35:07.079Z,15.60
2023-03-06T11:37:53.317Z,17.80
2023-03-06T11:40:38.574Z,14.80
2023-03-06T11:43:24.558Z,9.40
2023-03-06T11:46:08.599Z,12.60
2023-03-06T11:48:51.081Z,10.20
2023-03-06T11:51:31.922Z,11.10
2023-03-06T11:54:07.796Z,14.10
2023-03-06T11:56:58.032Z,11.60
2023-03-06T12:00:08.203Z,10.40
2023-03-06T12:03:30.394Z,11.60
2023-03-06T12:06:17.737Z,13.40
2023-03-06T12:09:06.205Z,10.50
2023-03-06T12:11:54.948Z,14.00
2023-03-06T12:14:45.268Z,11.70
2023-03-06T12:17:39.444Z,13.60
2023-03-06T12:20:41.418Z,13.10
2023-03-06T12:23:38.394Z,10.90
2023-03-06T12:26:41.404Z,13.00
2023-03-06T12:29:39.852Z,11.70
2023-03-06T12:32:39.754Z,16.30
2023-03-06T12:36:00.974Z,28.70
2023-03-06T12:39:06.415Z,14.80
2023-03-06T12:41:58.592Z,12.20
2023-03-06T12:45:03.107Z,9.20
2023-03-06T12:47:45.791Z,32.70
2023-03-06T12:50:28.359Z,41.40
2023-03-06T12:53:06.788Z,21.00
2023-03-06T12:55:47.955Z,12.70
2023-03-06T12:58:52.965Z,23.90
2023-03-06T13:02:08.536Z,23.70
2023-03-06T13:05:05.198Z,18.80
2023-03-06T13:08:05.318Z,32.40
2023-03-06T13:10:44.964Z,29.00
2023-03-06T13:13:43.045Z,16.40
2023-03-06T13:16:31.481Z,19.20
2023-03-06T13:19:20.250Z,15.60
2023-03-06T13:22:30.761Z,17.00
2023-03-06T13:25:52.307Z,21.90
2023-03-06T13:28:45.106Z,36.30
2023-03-06T13:31:50.383Z,15.10
2023-03-06T13:37:52.496Z,21.10
2023-03-06T13:40:38.195Z,17.40
2023-03-06T13:43:25.201Z,26.50
2023-03-06T13:46:15.535Z,19.20
2023-03-06T13:49:07.308Z,15.50
2023-03-06T13:51:44.360Z,17.40
2023-03-06T13:54:33.941Z,18.80
2023-03-06T13:57:41.150Z,21.60
2023-03-06T14:00:45.505Z,18.80
2023-03-06T14:04:16.735Z,18.90
2023-03-06T14:07:12.639Z,17.00
2023-03-06T14:09:51.349Z,14.70
2023-03-06T14:12:31.793Z,17.40
2023-03-06T14:15:17.742Z,10.80
2023-03-06T14:18:01.690Z,12.90
2023-03-06T14:20:46.326Z,10.60
2023-03-06T14:23:35.686Z,13.70
2023-03-06T14:26:17.832Z,14.90
2023-03-06T14:29:01.766Z,12.30
2023-03-06T14:31:42.733Z,13.10
2023-03-06T14:34:25.508Z,17.70
2023-03-06T14:37:05.566Z,15.30
2023-03-06T14:39:43.046Z,15.70
2023-03-06T14:42:24.279Z,13.80
2023-03-06T14:45:18.711Z,14.30
2023-03-06T14:47:57.287Z,12.70
2023-03-06T14:50:35.654Z,15.50
2023-03-06T14:53:18.762Z,12.60
2023-03-06T14:55:58.221Z,12.30
2023-03-06T14:58:37.742Z,12.60
2023-03-06T15:01:14.787Z,11.60
2023-03-06T15:03:53.012Z,12.70
2023-03-06T15:06:33.318Z,13.70
2023-03-06T15:09:16.278Z,13.70
2023-03-06T15:12:35.049Z,14.50
2023-03-06T15:15:31.819Z,14.90
2023-03-06T15:18:19.834Z,14.80
2023-03-06T15:21:06.847Z,13.10
2023-03-06T15:23:43.925Z,14.50
2023-03-06T15:26:33.417Z,20.10
2023-03-06T15:29:24.327Z,19.20
2023-03-06T15:32:29.236Z,19.20
2023-03-06T15:35:34.654Z,17.00
2023-03-06T15:38:32.000Z,16.70
2023-03-06T15:41:12.729Z,19.60
2023-03-06T15:43:47.567Z,47.40
2023-03-06T15:46:21.785Z,52.10
2023-03-06T15:49:03.195Z,39.20
2023-03-06T15:51:37.901Z,48.40
2023-03-06T15:54:12.966Z,35.50
2023-03-06T15:56:50.929Z,34.70
2023-03-06T15:59:33.263Z,31.90
2023-03-06T16:02:17.769Z,30.20
2023-03-06T16:04:53.503Z,28.20
2023-03-06T16:07:28.400Z,25.90
2023-03-06T16:10:03.604Z,36.50
2023-03-06T16:12:38.847Z,40.50
2023-03-06T16:15:23.008Z,33.40
2023-03-06T16:17:57.683Z,34.80
2023-03-06T16:20:33.746Z,36.20
2023-03-06T16:23:10.584Z,26.20
2023-03-06T16:25:48.956Z,29.90
2023-03-06T16:28:23.496Z,28.50
2023-03-06T16:30:58.024Z,25.00
2023-03-06T16:33:32.528Z,26.20
2023-03-06T16:36:15.169Z,29.40
2023-03-06T16:38:49.694Z,31.40
2023-03-06T16:41:25.273Z,30.20
2023-03-06T16:43:59.855Z,29.50
2023-03-06T16:46:38.349Z,33.90
2023-03-06T16:49:19.322Z,32.10
2023-03-06T16:51:55.851Z,36.60
2023-03-06T16:54:30.785Z,41.30
2023-03-06T16:57:05.768Z,40.40
2023-03-06T16:59:40.101Z,39.70
2023-03-06T17:02:15.157Z,38.10
2023-03-06T17:04:49.961Z,36.10
2023-03-06T17:07:24.584Z,47.50
2023-03-06T17:09:59.567Z,40.50
2023-03-06T17:12:34.601Z,33.60
2023-03-06T17:15:12.546Z,32.20
2023-03-06T17:17:47.452Z,37.90
2023-03-06T17:20:23.912Z,39.70
2023-03-06T17:22:58.823Z,39.30
2023-03-06T17:25:35.144Z,37.50
2023-03-06T17:28:10.781Z,37.80
2023-03-06T17:30:45.710Z,41.20
2023-03-06T17:33:20.568Z,48.60
2023-03-06T17:36:00.648Z,47.30
2023-03-06T17:38:35.299Z,49.40
2023-03-06T17:41:12.459Z,52.70
2023-03-06T17:43:47.301Z,57.90
2023-03-06T17:46:22.644Z,58.60
2023-03-06T17:48:57.734Z,54.10
2023-03-06T17:51:32.130Z,45.50
2023-03-06T17:54:06.635Z,48.90
2023-03-06T17:56:41.713Z,71.30
2023-03-06T17:59:19.244Z,63.70
2023-03-06T18:01:54.029Z,65.90
2023-03-06T18:04:28.932Z,64.90
2023-03-06T18:07:03.921Z,57.70
2023-03-06T18:09:38.960Z,62.50
2023-03-06T18:12:14.125Z,72.00
2023-03-06T18:14:49.353Z,77.10
2023-03-06T18:17:24.031Z,67.80
2023-03-06T18:19:58.787Z,67.40
2023-03-06T18:22:33.905Z,59.30
2023-03-06T18:25:10.407Z,60.90
2023-03-06T18:27:45.113Z,62.50
2023-03-06T18:30:21.328Z,56.20
2023-03-06T18:32:56.490Z,53.10
2023-03-06T18:35:31.278Z,53.20
2023-03-06T18:38:06.294Z,55.00
2023-03-06T18:40:42.510Z,61.70
2023-03-06T18:43:17.567Z,61.50
2023-03-06T18:46:00.002Z,61.30
2023-03-06T18:48:35.665Z,60.90
2023-03-06T18:51:14.211Z,52.20
2023-03-06T18:53:49.586Z,56.70
2023-03-06T18:56:25.357Z,61.70
2023-03-06T18:59:01.885Z,60.20
2023-03-06T19:01:37.815Z,55.60
2023-03-06T19:04:12.859Z,51.40
2023-03-06T19:06:48.144Z,54.40
2023-03-06T19:09:22.841Z,61.00
2023-03-06T19:11:58.718Z,54.60
2023-03-06T19:14:33.561Z,82.60
2023-03-06T19:17:08.343Z,88.30
2023-03-06T19:19:43.226Z,105.00
2023-03-06T19:22:18.168Z,105.20
2023-03-06T19:24:53.227Z,91.90
2023-03-06T19:27:28.153Z,80.80
2023-03-06T19:30:02.684Z,70.50
2023-03-06T19:32:37.868Z,62.40
2023-03-06T19:35:13.652Z,61.00
2023-03-06T19:37:48.695Z,58.30
2023-03-06T19:40:23.727Z,63.80
2023-03-06T19:43:59.444Z,57.80
2023-03-06T19:46:36.372Z,52.60
2023-03-06T19:49:16.077Z,51.70
2023-03-06T19:51:50.828Z,61.70
2023-03-06T19:54:26.138Z,56.10
2023-03-06T19:57:00.623Z,55.80
2023-03-06T19:59:35.517Z,47.50
2023-03-06T20:02:12.846Z,51.60
2023-03-06T20:04:47.685Z,43.50
2023-03-06T20:07:22.318Z,47.40
2023-03-06T20:10:00.899Z,50.20
2023-03-06T20:12:36.329Z,57.00
2023-03-06T20:15:13.252Z,46.60
2023-03-06T20:17:48.200Z,44.70
2023-03-06T20:20:23.362Z,39.70
2023-03-06T20:23:02.654Z,34.60
2023-03-06T20:25:39.877Z,37.10
2023-03-06T20:28:14.406Z,37.20
2023-03-06T20:30:49.395Z,40.60
2023-03-06T20:33:27.194Z,41.20
2023-03-06T20:36:02.070Z,42.70
2023-03-06T20:38:36.670Z,29.80
2023-03-06T20:41:16.697Z,33.60
2023-03-06T20:43:51.305Z,36.70
2023-03-06T20:46:26.497Z,29.30
2023-03-06T20:49:02.034Z,33.30
2023-03-06T20:51:39.448Z,32.80
2023-03-06T20:54:17.145Z,31.10
2023-03-06T20:56:53.530Z,32.30
2023-03-06T20:59:28.660Z,30.60
2023-03-06T21:02:03.903Z,30.60
2023-03-06T21:04:41.140Z,32.50
2023-03-06T21:07:17.060Z,31.00
2023-03-06T21:09:52.335Z,34.40
2023-03-06T21:12:26.917Z,33.00
2023-03-06T21:15:01.402Z,37.10
2023-03-06T21:17:35.835Z,40.80
2023-03-06T21:20:12.883Z,38.60
2023-03-06T21:22:47.537Z,34.90
2023-03-06T21:25:22.355Z,33.80
2023-03-06T21:27:57.354Z,31.60
2023-03-06T21:30:32.908Z,32.00
2023-03-06T21:33:10.763Z,35.30
2023-03-06T21:35:46.222Z,29.60
2023-03-06T21:38:21.094Z,29.70
2023-03-06T21:40:56.083Z,32.70
2023-03-06T21:43:31.044Z,27.90
2023-03-06T21:46:06.362Z,30.20
2023-03-06T21:48:41.137Z,34.50
2023-03-06T21:51:19.085Z,32.10
2023-03-06T21:53:54.982Z,33.00
2023-03-06T21:56:30.619Z,29.70
2023-03-06T21:59:05.109Z,30.20
2023-03-06T22:01:39.850Z,31.50
2023-03-06T22:04:14.417Z,30.90
2023-03-06T22:06:48.890Z,34.20
2023-03-06T22:09:23.576Z,29.30
2023-03-06T22:11:58.412Z,27.00
2023-03-06T22:14:32.971Z,34.20
2023-03-06T22:17:07.653Z,37.00
2023-03-06T22:19:43.644Z,38.20
2023-03-06T22:22:19.073Z,36.70
2023-03-06T22:24:53.703Z,32.30
2023-03-06T22:27:29.904Z,34.30
2023-03-06T22:30:04.622Z,34.80
2023-03-06T22:32:39.062Z,35.40
2023-03-06T22:35:14.383Z,39.30
2023-03-06T22:37:49.387Z,33.10
2023-03-06T22:40:24.519Z,36.40
2023-03-06T22:56:29.624Z,33.40
2023-03-06T22:59:04.472Z,36.70
2023-03-06T23:01:39.802Z,35.40
2023-03-06T23:04:15.123Z,37.60
2023-03-06T23:06:50.318Z,33.40
2023-03-06T23:09:26.069Z,35.30
2023-03-06T23:12:19.188Z,33.30
2023-03-06T23:15:13.460Z,30.10
2023-03-06T23:18:06.713Z,34.00
2023-03-06T23:20:59.849Z,34.50
2023-03-06T23:23:55.580Z,33.40
2023-03-06T23:26:34.265Z,32.20
2023-03-06T23:29:08.675Z,30.40
2023-03-06T23:31:43.364Z,33.30
2023-03-06T23:34:17.707Z,37.80
2023-03-06T23:36:52.609Z,35.10
2023-03-06T23:39:28.006Z,35.20
2023-03-06T23:42:02.615Z,33.30
2023-03-06T23:44:39.176Z,39.00
2023-03-06T23:47:13.606Z,37.40
2023-03-06T23:49:48.200Z,39.10
2023-03-06T23:52:23.311Z,34.70
2023-03-06T23:54:57.914Z,34.40
2023-03-06T23:57:34.166Z,32.30
